Time;durP1;ratioP1;P1;durP2;ratioP2;P2;SDS_P1;SDS_P2;PMS_P1;PMS_P2;Temp;Humidity;BMP_temperature;BMP_pressure;BME280_temperature;BME280_humidity;BME280_pressure;Samples;Min_cycle;Max_cycle;Signal;HPM_P1;HPM_P2
2021/08/16 00:01:32;;;;;;;;;;;;;;;22.71;28.26;97997.25;5076734;28;1135;-86
2021/08/16 00:03:57;;;;;;;;;;;;;;;22.84;27.78;97991.56;5059998;28;1258;-87
2021/08/16 00:06:23;;;;;;;;;;;;;;;22.80;28.14;97991.72;5076832;28;642;-87
2021/08/16 00:08:49;;;;;;;;;;;;;;;22.81;28.00;97993.28;5060880;28;1135;-87
2021/08/16 00:11:14;;;;;;;;;;;;;;;22.73;28.20;97991.91;5076625;28;953;-86
2021/08/16 00:13:39;;;;;;;;;;;;;;;22.76;28.16;97987.38;5060742;28;1140;-87
2021/08/16 00:16:05;;;;;;;;;;;;;;;22.76;27.83;97991.00;5076440;28;983;-87
2021/08/16 00:18:31;;;;;;;;;;;;;;;22.73;27.80;97991.91;5076897;28;1258;-87
2021/08/16 00:20:57;;;;;;;;;;;;;;;22.68;28.04;97983.97;5059269;28;1985;-86
2021/08/16 00:23:22;;;;;;;;;;;;;;;22.80;28.15;97985.25;5077086;28;1225;-87
2021/08/16 00:25:47;;;;;;;;;;;;;;;22.87;27.88;97980.13;5075800;28;948;-87
2021/08/16 00:28:13;;;;;;;;;;;;;;;22.84;27.67;97978.19;5076630;28;1119;-87
2021/08/16 00:30:38;;;;;;;;;;;;;;;23.00;27.56;97982.19;5059375;28;1164;-87
2021/08/16 00:33:04;;;;;;;;;;;;;;;22.83;28.02;97985.09;5076650;28;1337;-86
2021/08/16 00:35:29;;;;;;;;;;;;;;;22.66;28.02;97975.13;5092833;28;682;-87
2021/08/16 00:37:55;;;;;;;;;;;;;;;22.77;27.92;97975.56;5058241;28;1119;-87
2021/08/16 00:40:20;;;;;;;;;;;;;;;22.66;28.07;97977.97;5058448;28;1910;-87
2021/08/16 00:42:46;;;;;;;;;;;;;;;22.63;28.41;97973.19;5092642;28;864;-86
2021/08/16 00:45:11;;;;;;;;;;;;;;;22.68;28.15;97966.94;5075791;28;1195;-86
2021/08/16 00:47:37;;;;;;;;;;;;;;;22.93;27.84;97971.06;5075558;28;1279;-87
2021/08/16 00:50:02;;;;;;;;;;;;;;;22.86;27.95;97964.34;5075524;28;1278;-86
2021/08/16 00:52:28;;;;;;;;;;;;;;;22.72;28.18;97970.47;5076467;28;694;-87
2021/08/16 00:54:54;;;;;;;;;;;;;;;22.92;27.60;97972.31;5076349;28;1265;-87
2021/08/16 00:57:21;;;;;;;;;;;;;;;22.74;27.90;97965.16;5075700;28;1291;-87
2021/08/16 00:59:47;;;;;;;;;;;;;;;22.81;28.04;97964.13;5076285;28;1909;-87
2021/08/16 01:02:12;;;;;;;;;;;;;;;22.93;27.70;97959.72;5075606;28;1226;-87
2021/08/16 01:04:38;;;;;;;;;;;;;;;22.82;27.83;97960.03;5059465;28;1249;-87
2021/08/16 01:07:03;;;;;;;;;;;;;;;22.66;27.93;97954.47;5058924;28;1142;-87
2021/08/16 01:09:29;;;;;;;;;;;;;;;22.72;27.82;97950.63;5075897;28;981;-87
2021/08/16 01:11:54;;;;;;;;;;;;;;;22.71;28.07;97951.88;5058799;28;1166;-86
2021/08/16 01:14:20;;;;;;;;;;;;;;;22.83;27.75;97947.44;5075742;28;1045;-86
2021/08/16 01:16:47;;;;;;;;;;;;;;;22.78;27.79;97948.00;5075799;28;836;-87
2021/08/16 01:19:12;;;;;;;;;;;;;;;22.82;27.87;97943.00;5076232;28;1874;-86
2021/08/16 01:21:38;;;;;;;;;;;;;;;22.67;28.02;97947.56;5058787;28;1265;-87
2021/08/16 01:24:04;;;;;;;;;;;;;;;22.68;27.80;97943.47;5059063;28;1170;-87
2021/08/16 01:26:33;;;;;;;;;;;;;;;22.75;27.97;97938.38;5075562;28;1171;-87
2021/08/16 01:28:58;;;;;;;;;;;;;;;22.92;27.32;97941.13;5075915;28;1245;-87
2021/08/16 01:31:24;;;;;;;;;;;;;;;22.84;27.68;97941.28;5075207;28;970;-87
2021/08/16 01:33:49;;;;;;;;;;;;;;;22.84;27.81;97946.97;5092665;28;880;-87
2021/08/16 01:36:15;;;;;;;;;;;;;;;22.64;28.02;97937.94;5075431;28;1255;-87
2021/08/16 01:38:43;;;;;;;;;;;;;;;22.67;28.04;97942.69;5075304;28;1883;-87
2021/08/16 01:41:09;;;;;;;;;;;;;;;22.74;27.79;97936.78;5058314;28;1223;-87
2021/08/16 01:43:34;;;;;;;;;;;;;;;22.76;27.69;97934.28;5075913;28;1185;-87
2021/08/16 01:46:00;;;;;;;;;;;;;;;22.74;27.88;97935.97;5058805;28;1189;-87
2021/08/16 01:48:26;;;;;;;;;;;;;;;22.69;27.58;97933.72;5093494;28;677;-86
2021/08/16 01:50:51;;;;;;;;;;;;;;;22.91;27.21;97933.84;5062461;28;1266;-87
2021/08/16 01:53:17;;;;;;;;;;;;;;;22.94;27.29;97930.09;5062302;28;1173;-86
2021/08/16 01:55:42;;;;;;;;;;;;;;;22.72;27.51;97932.81;5062238;28;1158;-87
2021/08/16 01:58:08;;;;;;;;;;;;;;;22.69;27.61;97940.19;5062216;28;1174;-86
2021/08/16 02:00:34;;;;;;;;;;;;;;;22.81;27.35;97930.88;5062603;28;1902;-87
2021/08/16 02:03:00;;;;;;;;;;;;;;;22.69;27.93;97940.19;5079436;28;1317;-87
2021/08/16 02:05:25;;;;;;;;;;;;;;;22.70;27.70;97930.44;5078868;28;1265;-86
2021/08/16 02:07:51;;;;;;;;;;;;;;;22.60;27.70;97931.56;5062027;28;1174;-87
2021/08/16 02:10:16;;;;;;;;;;;;;;;22.68;27.40;97930.06;5062315;28;1252;-87
2021/08/16 02:12:42;;;;;;;;;;;;;;;22.71;27.32;97920.66;5078955;28;1178;-86
2021/08/16 02:15:08;;;;;;;;;;;;;;;22.72;27.63;97930.75;5079058;28;1204;-87
2021/08/16 02:17:33;;;;;;;;;;;;;;;22.68;27.54;97932.13;5078489;28;1211;-87
2021/08/16 02:19:59;;;;;;;;;;;;;;;22.73;27.50;97923.84;5078256;28;1890;-86
2021/08/16 02:22:24;;;;;;;;;;;;;;;22.72;27.52;97933.59;5078432;28;1143;-86
2021/08/16 02:24:50;;;;;;;;;;;;;;;22.72;27.57;97927.94;5078668;28;1127;-87
2021/08/16 02:27:17;;;;;;;;;;;;;;;22.82;27.20;97915.44;5078389;28;1086;-86
2021/08/16 02:29:42;;;;;;;;;;;;;;;22.69;27.64;97925.19;5061641;28;1148;-87
2021/08/16 02:32:07;;;;;;;;;;;;;;;22.78;27.29;97934.63;5078140;28;1253;-86
2021/08/16 02:34:33;;;;;;;;;;;;;;;22.71;27.57;97937.69;5078693;28;1339;-87
2021/08/16 02:36:58;;;;;;;;;;;;;;;22.69;27.53;97934.53;5094971;28;957;-86
2021/08/16 02:39:24;;;;;;;;;;;;;;;22.65;27.33;97933.84;5062115;28;1976;-86
2021/08/16 02:41:49;;;;;;;;;;;;;;;22.51;27.83;97939.97;5060941;28;1240;-86
2021/08/16 02:44:15;;;;;;;;;;;;;;;22.53;27.59;97943.13;5078236;28;1339;-87
2021/08/16 02:46:40;;;;;;;;;;;;;;;22.62;27.36;97934.72;5077370;28;889;-86
2021/08/16 02:49:06;;;;;;;;;;;;;;;22.67;27.53;97939.84;5078352;28;813;-86
2021/08/16 02:51:31;;;;;;;;;;;;;;;22.72;27.50;97938.47;5094177;28;960;-86
2021/08/16 02:53:57;;;;;;;;;;;;;;;22.73;27.24;97945.75;5077610;28;1159;-86
2021/08/16 02:56:22;;;;;;;;;;;;;;;22.65;27.48;97939.50;5061058;28;1145;-86
2021/08/16 02:58:48;;;;;;;;;;;;;;;22.65;27.19;97933.84;5094566;28;1973;-86
2021/08/16 03:01:13;;;;;;;;;;;;;;;22.62;27.31;97934.72;5059951;28;1150;-85
2021/08/16 03:03:39;;;;;;;;;;;;;;;22.68;27.07;97938.59;5061015;28;1176;-84
2021/08/16 03:06:04;;;;;;;;;;;;;;;22.68;27.39;97949.94;5060296;28;1353;-87
2021/08/16 03:08:32;;;;;;;;;;;;;;;22.63;27.40;97950.50;5076388;28;1267;-86
2021/08/16 03:10:57;;;;;;;;;;;;;;;22.83;26.90;97948.22;5111461;28;1117;-87
2021/08/16 03:13:22;;;;;;;;;;;;;;;22.67;27.40;97942.69;5077592;28;742;-86
2021/08/16 03:15:48;;;;;;;;;;;;;;;22.76;26.93;97945.63;5073517;28;1285;-86
2021/08/16 03:18:13;;;;;;;;;;;;;;;22.70;27.24;97944.63;5077072;28;866;-86
2021/08/16 03:20:40;;;;;;;;;;;;;;;22.60;27.21;97943.72;5076966;28;1966;-86
2021/08/16 03:23:05;;;;;;;;;;;;;;;22.70;27.04;97941.78;5076764;28;1110;-86
2021/08/16 03:25:31;;;;;;;;;;;;;;;22.65;27.35;97948.03;5076904;28;952;-86
2021/08/16 03:27:56;;;;;;;;;;;;;;;22.55;27.38;97949.16;5077244;28;1253;-86
2021/08/16 03:30:22;;;;;;;;;;;;;;;22.69;27.26;97954.38;5077142;28;1181;-86
2021/08/16 03:32:48;;;;;;;;;;;;;;;22.51;27.38;97952.09;5076712;28;1272;-86
2021/08/16 03:35:15;;;;;;;;;;;;;;;22.66;27.06;97952.44;5077298;28;1190;-86
2021/08/16 03:37:41;;;;;;;;;;;;;;;22.45;27.64;97953.09;5071780;28;965;-86
2021/08/16 03:40:07;;;;;;;;;;;;;;;22.62;27.13;97951.75;5076978;28;1886;-86
2021/08/16 03:42:33;;;;;;;;;;;;;;;22.66;27.07;97952.44;5060419;28;1305;-86
2021/08/16 03:44:58;;;;;;;;;;;;;;;22.81;26.76;97959.25;5060292;28;1268;-87
2021/08/16 03:47:23;;;;;;;;;;;;;;;22.59;27.16;97947.78;5093448;28;784;-86
2021/08/16 03:49:49;;;;;;;;;;;;;;;22.50;27.44;97961.06;5059529;28;1199;-86
2021/08/16 03:52:14;;;;;;;;;;;;;;;22.48;27.51;97963.53;5060216;28;1278;-86
2021/08/16 03:54:46;;;;;;;;;;;;;;;22.68;26.96;97963.31;5060051;28;1291;-87
2021/08/16 03:57:11;;;;;;;;;;;;;;;22.77;26.76;97958.56;5093959;28;1490;-87
2021/08/16 03:59:37;;;;;;;;;;;;;;;22.57;27.32;97964.44;5076205;28;1965;-86
2021/08/16 04:02:02;;;;;;;;;;;;;;;22.49;27.39;97960.25;5059969;28;1248;-86
2021/08/16 04:04:28;;;;;;;;;;;;;;;22.55;27.37;97957.66;5076950;28;1118;-86
2021/08/16 04:06:54;;;;;;;;;;;;;;;22.62;27.18;97957.44;5076382;28;906;-86
2021/08/16 04:09:19;;;;;;;;;;;;;;;22.64;27.07;97960.63;5076610;28;1211;-87
2021/08/16 04:11:45;;;;;;;;;;;;;;;22.61;26.93;97959.47;5076861;28;1197;-86
2021/08/16 04:14:10;;;;;;;;;;;;;;;22.62;26.96;97960.25;5077380;28;1208;-87
2021/08/16 04:16:36;;;;;;;;;;;;;;;22.59;27.21;97964.03;5093061;28;646;-86
2021/08/16 04:19:01;;;;;;;;;;;;;;;22.42;27.64;97971.00;5076161;28;1898;-86
2021/08/16 04:21:27;;;;;;;;;;;;;;;22.49;27.44;97965.16;5109968;28;918;-86
2021/08/16 04:23:52;;;;;;;;;;;;;;;22.48;27.25;97969.19;5076601;28;1289;-86
2021/08/16 04:26:18;;;;;;;;;;;;;;;22.58;27.34;97965.25;5059049;28;1172;-86
2021/08/16 04:28:43;;;;;;;;;;;;;;;22.68;27.20;97960.47;5110944;28;683;-86
2021/08/16 04:31:09;;;;;;;;;;;;;;;22.63;27.17;97965.47;5075563;28;673;-86
2021/08/16 04:33:34;;;;;;;;;;;;;;;22.70;27.03;97958.00;5059677;28;902;-86
2021/08/16 04:36:00;;;;;;;;;;;;;;;22.66;27.25;97966.63;5091690;28;1292;-86
2021/08/16 04:38:25;;;;;;;;;;;;;;;22.67;27.51;97971.03;5076212;28;1198;-86
2021/08/16 04:40:53;;;;;;;;;;;;;;;22.81;26.91;97973.44;5075260;28;1910;-86
2021/08/16 04:43:18;;;;;;;;;;;;;;;22.78;27.32;97970.69;5092602;28;626;-86
2021/08/16 04:45:44;;;;;;;;;;;;;;;22.84;27.26;97964.00;5074838;28;1160;-86
2021/08/16 04:48:09;;;;;;;;;;;;;;;22.69;27.37;97968.56;5075671;28;1228;-86
2021/08/16 04:50:35;;;;;;;;;;;;;;;22.63;27.70;97959.78;5058826;28;1266;-86
2021/08/16 04:53:00;;;;;;;;;;;;;;;22.62;27.56;97960.25;5074416;28;1165;-85
2021/08/16 04:55:26;;;;;;;;;;;;;;;22.67;27.53;97968.19;5057989;28;1317;-86
2021/08/16 04:57:51;;;;;;;;;;;;;;;22.68;27.39;97966.94;5073424;28;847;-86
2021/08/16 05:00:18;;;;;;;;;;;;;;;22.70;27.34;97972.97;5072887;28;1988;-84
2021/08/16 05:02:44;;;;;;;;;;;;;;;22.85;27.23;97965.59;5074201;28;1153;-86
2021/08/16 05:05:19;;;;;;;;;;;;;;;22.87;27.31;97967.97;5074549;28;845;-86
2021/08/16 05:07:45;;;;;;;;;;;;;;;22.86;27.29;97967.19;5059340;28;1148;-86
2021/08/16 05:10:11;;;;;;;;;;;;;;;22.80;27.67;97980.34;5058229;28;1325;-86
2021/08/16 05:12:36;;;;;;;;;;;;;;;22.72;27.53;97976.16;5058856;28;1174;-86
2021/08/16 05:15:02;;;;;;;;;;;;;;;22.66;27.72;97977.97;5075047;28;1283;-86
2021/08/16 05:17:28;;;;;;;;;;;;;;;22.60;28.17;97982.63;5091674;28;874;-85
2021/08/16 05:19:53;;;;;;;;;;;;;;;22.61;28.01;97978.53;5074743;28;1903;-86
2021/08/16 05:22:18;;;;;;;;;;;;;;;22.70;27.77;97975.81;5058501;28;1105;-85
2021/08/16 05:24:44;;;;;;;;;;;;;;;22.78;27.70;97985.69;5058115;28;1277;-86
2021/08/16 05:27:14;;;;;;;;;;;;;;;22.76;27.74;97982.50;5075504;28;1204;-86
2021/08/16 05:29:40;;;;;;;;;;;;;;;22.67;27.83;97992.94;5109110;28;957;-86
2021/08/16 05:32:05;;;;;;;;;;;;;;;22.70;27.88;97992.03;5057664;28;1422;-86
2021/08/16 05:34:31;;;;;;;;;;;;;;;22.81;27.69;97993.28;5075664;28;949;-86
2021/08/16 05:36:57;;;;;;;;;;;;;;;22.73;27.93;97991.13;5091801;28;816;-86
2021/08/16 05:39:22;;;;;;;;;;;;;;;22.72;28.04;97996.00;5059290;28;1887;-86
2021/08/16 05:41:48;;;;;;;;;;;;;;;22.68;27.91;97989.63;5057683;28;1137;-85
2021/08/16 05:44:14;;;;;;;;;;;;;;;22.68;28.17;97989.63;5092149;28;1151;-86
2021/08/16 05:46:40;;;;;;;;;;;;;;;22.69;28.11;97996.94;5057519;28;1423;-86
2021/08/16 05:49:05;;;;;;;;;;;;;;;22.75;28.00;98000.00;5074807;28;785;-86
2021/08/16 05:51:31;;;;;;;;;;;;;;;22.70;28.31;97994.88;5074792;28;1118;-86
2021/08/16 05:53:56;;;;;;;;;;;;;;;22.81;28.09;97992.50;5074959;28;779;-85
2021/08/16 05:56:22;;;;;;;;;;;;;;;22.83;28.03;98002.13;5091653;28;964;-86
2021/08/16 05:58:47;;;;;;;;;;;;;;;22.92;27.70;97997.84;5091753;28;1905;-86
2021/08/16 06:01:13;;;;;;;;;;;;;;;22.66;28.42;97997.81;5091305;28;1083;-86
2021/08/16 06:03:38;;;;;;;;;;;;;;;22.72;28.13;97998.84;5109466;28;836;-86
2021/08/16 06:06:04;;;;;;;;;;;;;;;22.74;27.99;98004.88;5073679;28;1269;-86
2021/08/16 06:08:29;;;;;;;;;;;;;;;22.63;28.12;98010.06;5058123;28;1143;-86
2021/08/16 06:10:55;;;;;;;;;;;;;;;22.76;28.17;98007.25;5073954;28;1194;-86
2021/08/16 06:13:21;;;;;;;;;;;;;;;22.81;28.22;98012.34;5057366;28;1164;-86
2021/08/16 06:15:46;;;;;;;;;;;;;;;22.75;28.25;98011.34;5073643;28;970;-86
2021/08/16 06:18:12;;;;;;;;;;;;;;;22.53;28.77;98017.63;5090318;28;759;-85
2021/08/16 06:20:37;;;;;;;;;;;;;;;22.60;28.70;98016.66;5090759;28;1890;-86
2021/08/16 06:23:03;;;;;;;;;;;;;;;22.63;28.43;98004.38;5057579;28;1132;-86
2021/08/16 06:25:29;;;;;;;;;;;;;;;22.72;28.26;98012.22;5089787;28;1171;-85
2021/08/16 06:27:54;;;;;;;;;;;;;;;22.86;27.92;98018.25;5073146;28;1305;-85
2021/08/16 06:30:20;;;;;;;;;;;;;;;22.74;28.35;98016.22;5056396;28;1278;-85
2021/08/16 06:32:46;;;;;;;;;;;;;;;22.81;28.21;98015.19;5056560;28;1214;-85
2021/08/16 06:35:14;;;;;;;;;;;;;;;22.86;27.96;98012.59;5091375;28;824;-85
2021/08/16 06:37:39;;;;;;;;;;;;;;;22.69;28.25;98019.63;5077465;28;1185;-84
2021/08/16 06:40:06;;;;;;;;;;;;;;;22.56;28.47;98021.63;5076155;28;1956;-85
2021/08/16 06:42:31;;;;;;;;;;;;;;;22.53;28.73;98033.84;5076675;28;1207;-84
2021/08/16 06:44:57;;;;;;;;;;;;;;;22.73;28.53;98023.13;5076147;28;888;-84
2021/08/16 06:47:22;;;;;;;;;;;;;;;22.78;28.35;98022.56;5075309;28;1195;-83
2021/08/16 06:49:57;;;;;;;;;;;;;;;22.76;28.35;98019.38;5076327;28;739;-85
2021/08/16 06:52:22;;;;;;;;;;;;;;;22.66;28.32;98014.03;5075909;28;896;-86
2021/08/16 06:54:48;;;;;;;;;;;;;;;22.71;28.58;98022.00;5092588;28;970;-84
2021/08/16 06:57:13;;;;;;;;;;;;;;;22.86;28.31;98023.13;5059778;28;1141;-85
2021/08/16 06:59:39;;;;;;;;;;;;;;;22.83;28.14;98019.16;5059692;28;1918;-84
2021/08/16 07:02:04;;;;;;;;;;;;;;;22.74;28.26;98021.88;5092795;28;960;-85
2021/08/16 07:04:30;;;;;;;;;;;;;;;22.70;28.39;98021.19;5074905;28;1210;-86
2021/08/16 07:06:55;;;;;;;;;;;;;;;22.85;28.43;98027.22;5092426;28;1178;-85
2021/08/16 07:09:20;;;;;;;;;;;;;;;22.83;28.27;98024.81;5076680;28;957;-86
2021/08/16 07:11:46;;;;;;;;;;;;;;;22.85;28.46;98028.03;5059627;28;1369;-86
2021/08/16 07:14:11;;;;;;;;;;;;;;;22.75;28.63;98036.88;5094303;28;981;-86
2021/08/16 07:16:37;;;;;;;;;;;;;;;22.82;28.42;98028.91;5093263;28;909;-85
2021/08/16 07:19:02;;;;;;;;;;;;;;;22.85;28.12;98039.38;5059683;28;1905;-85
2021/08/16 07:21:28;;;;;;;;;;;;;;;22.78;28.36;98033.91;5076868;28;710;-86
2021/08/16 07:23:55;;;;;;;;;;;;;;;23.13;28.10;98036.91;5076754;28;1230;-86
2021/08/16 07:26:20;;;;;;;;;;;;;;;22.91;28.53;98041.66;5093256;28;940;-86
2021/08/16 07:28:46;;;;;;;;;;;;;;;22.86;28.61;98040.94;5059743;28;1311;-86
2021/08/16 07:31:13;;;;;;;;;;;;;;;22.84;28.62;98043.44;5077089;28;1282;-86
2021/08/16 07:33:38;;;;;;;;;;;;;;;22.88;28.51;98044.16;5078026;28;1130;-86
2021/08/16 07:36:04;;;;;;;;;;;;;;;22.83;28.58;98035.38;5077023;28;686;-86
2021/08/16 07:38:30;;;;;;;;;;;;;;;22.69;28.53;98036.63;5077130;28;912;-85
2021/08/16 07:40:55;;;;;;;;;;;;;;;22.74;28.80;98038.91;5076303;28;1982;-86
2021/08/16 07:43:21;;;;;;;;;;;;;;;22.73;28.91;98042.19;5093727;28;885;-86
2021/08/16 07:45:48;;;;;;;;;;;;;;;22.80;28.58;98047.66;5058932;28;1142;-86
2021/08/16 07:48:13;;;;;;;;;;;;;;;22.86;28.67;98046.63;5076526;28;1416;-86
2021/08/16 07:50:39;;;;;;;;;;;;;;;22.79;28.88;98046.03;5076377;28;1132;-86
2021/08/16 07:53:05;;;;;;;;;;;;;;;22.74;28.95;98047.41;5059711;28;1167;-86
2021/08/16 07:55:31;;;;;;;;;;;;;;;22.73;28.64;98045.81;5059329;28;1333;-86
2021/08/16 07:57:56;;;;;;;;;;;;;;;22.74;28.90;98047.41;5093262;28;1190;-86
2021/08/16 08:00:22;;;;;;;;;;;;;;;22.93;28.50;98051.31;5074422;28;1890;-85
2021/08/16 08:02:48;;;;;;;;;;;;;;;22.88;28.51;98044.16;5059480;28;1258;-86
2021/08/16 08:05:14;;;;;;;;;;;;;;;22.98;28.28;98035.75;5059063;28;1159;-86
2021/08/16 08:07:41;;;;;;;;;;;;;;;22.74;28.73;98043.75;5093226;28;761;-86
2021/08/16 08:10:06;;;;;;;;;;;;;;;22.63;29.01;98044.09;5076319;28;1179;-85
2021/08/16 08:12:32;;;;;;;;;;;;;;;22.75;29.00;98043.34;5076084;28;1132;-84
2021/08/16 08:14:57;;;;;;;;;;;;;;;22.83;28.62;98041.84;5059539;28;1185;-86
2021/08/16 08:17:23;;;;;;;;;;;;;;;22.91;28.51;98048.13;5076390;28;1163;-86
2021/08/16 08:19:49;;;;;;;;;;;;;;;22.75;28.95;98040.50;5092466;28;1894;-86
2021/08/16 08:22:17;;;;;;;;;;;;;;;22.67;29.05;98036.28;5074521;28;1151;-84
2021/08/16 08:24:44;;;;;;;;;;;;;;;22.84;28.67;98049.09;5072496;28;1178;-83
2021/08/16 08:27:12;;;;;;;;;;;;;;;22.74;29.03;98038.09;5108685;28;1018;-85
2021/08/16 08:29:37;;;;;;;;;;;;;;;22.90;28.83;98029.53;5091756;28;954;-85
2021/08/16 08:32:03;;;;;;;;;;;;;;;22.99;28.53;98031.66;5075340;28;674;-85
2021/08/16 08:34:28;;;;;;;;;;;;;;;23.03;28.53;98032.34;5074683;28;817;-85
2021/08/16 08:36:54;;;;;;;;;;;;;;;22.80;28.98;98041.97;5074968;28;949;-86
2021/08/16 08:39:20;;;;;;;;;;;;;;;22.70;29.24;98026.88;5091715;28;1883;-86
2021/08/16 08:41:45;;;;;;;;;;;;;;;22.79;29.01;98037.53;5058471;28;1330;-85
2021/08/16 08:44:12;;;;;;;;;;;;;;;22.84;29.00;98029.25;5074820;28;927;-86
2021/08/16 08:46:38;;;;;;;;;;;;;;;22.86;28.96;98023.13;5075774;28;1250;-85
2021/08/16 08:49:04;;;;;;;;;;;;;;;22.99;28.68;98031.66;5058385;28;1324;-85
2021/08/16 08:51:29;;;;;;;;;;;;;;;22.94;28.81;98035.06;5058344;28;1363;-86
2021/08/16 08:53:55;;;;;;;;;;;;;;;22.90;28.87;98023.03;5091179;28;966;-85
2021/08/16 08:56:20;;;;;;;;;;;;;;;23.00;28.81;98019.88;5057540;28;1298;-85
2021/08/16 08:58:46;;;;;;;;;;;;;;;22.88;28.92;98027.13;5073577;28;1137;-85
2021/08/16 09:01:12;;;;;;;;;;;;;;;22.76;29.36;98029.94;5074784;28;1918;-85
2021/08/16 09:03:50;;;;;;;;;;;;;;;22.84;29.13;98025.63;5075070;28;918;-85
2021/08/16 09:06:26;;;;;;;;;;;;;;;22.99;28.88;98023.16;5091098;28;607;-85
2021/08/16 09:08:51;;;;;;;;;;;;;;;22.96;28.85;98021.25;5090330;28;1150;-84
2021/08/16 09:11:17;;;;;;;;;;;;;;;22.99;28.95;98020.31;5074139;28;1266;-84
2021/08/16 09:13:56;;;;;;;;;;;;;;;22.86;28.89;98028.81;5073123;28;987;-85
2021/08/16 09:16:22;;;;;;;;;;;;;;;23.01;28.93;98020.69;5073378;28;765;-85
2021/08/16 09:18:47;;;;;;;;;;;;;;;22.96;28.90;98022.03;5074168;28;1157;-85
2021/08/16 09:21:14;;;;;;;;;;;;;;;22.78;29.34;98016.09;5074701;28;1910;-85
2021/08/16 09:23:45;;;;;;;;;;;;;;;22.74;29.36;98021.06;5090966;28;1152;-85
2021/08/16 09:26:11;;;;;;;;;;;;;;;22.81;29.25;98015.97;5057390;28;1302;-86
2021/08/16 09:28:37;;;;;;;;;;;;;;;22.87;29.00;98014.16;5073938;28;861;-85
2021/08/16 09:31:12;;;;;;;;;;;;;;;22.98;28.96;98013.06;5090770;28;1131;-85
2021/08/16 09:33:37;;;;;;;;;;;;;;;22.95;29.10;98019.63;5074560;28;1230;-86
2021/08/16 09:36:03;;;;;;;;;;;;;;;22.98;28.75;98013.84;5074313;28;884;-86
2021/08/16 09:38:36;;;;;;;;;;;;;;;22.99;28.76;98017.47;5074439;28;1213;-85
2021/08/16 09:41:01;;;;;;;;;;;;;;;23.15;28.63;98006.00;5056813;28;1981;-85
2021/08/16 09:43:27;;;;;;;;;;;;;;;23.02;28.76;98008.06;5091341;28;1333;-86
2021/08/16 09:45:53;;;;;;;;;;;;;;;23.10;28.56;98012.25;5090700;28;622;-86
2021/08/16 09:48:19;;;;;;;;;;;;;;;22.94;29.04;98001.81;5074856;28;1131;-85
2021/08/16 09:50:46;;;;;;;;;;;;;;;22.92;28.80;98014.88;5073565;28;1255;-86
2021/08/16 09:53:18;;;;;;;;;;;;;;;22.99;28.95;98008.97;5074837;28;1264;-85
2021/08/16 09:55:44;;;;;;;;;;;;;;;22.90;29.21;98004.00;5058122;28;1329;-85
2021/08/16 09:58:13;;;;;;;;;;;;;;;23.04;28.65;98005.56;5074770;28;1333;-85
2021/08/16 10:00:39;;;;;;;;;;;;;;;22.98;28.68;98004.56;5075092;28;1899;-85
2021/08/16 10:03:06;;;;;;;;;;;;;;;23.07;28.61;97999.00;5074000;28;1254;-85
2021/08/16 10:05:32;;;;;;;;;;;;;;;23.21;28.60;98004.22;5091136;28;1032;-85
2021/08/16 10:07:58;;;;;;;;;;;;;;;22.91;28.92;97999.13;5090994;28;880;-86
2021/08/16 10:10:24;;;;;;;;;;;;;;;22.77;29.38;97994.66;5060338;28;1141;-85
2021/08/16 10:12:49;;;;;;;;;;;;;;;23.02;28.76;98002.41;5060316;28;1278;-85
2021/08/16 10:15:15;;;;;;;;;;;;;;;23.11;28.97;97994.78;5078619;28;1193;-86
2021/08/16 10:17:41;;;;;;;;;;;;;;;23.16;28.49;97996.25;5077783;28;1136;-85
2021/08/16 10:20:07;;;;;;;;;;;;;;;23.02;28.95;97997.50;5060524;28;1966;-85
2021/08/16 10:22:36;;;;;;;;;;;;;;;23.01;29.10;97995.13;5077754;28;1265;-85
2021/08/16 10:25:11;;;;;;;;;;;;;;;22.92;29.28;97995.03;5077299;28;1131;-85
2021/08/16 10:27:36;;;;;;;;;;;;;;;23.08;29.01;97989.22;5078136;28;1261;-85
2021/08/16 10:30:06;;;;;;;;;;;;;;;22.94;29.04;97996.13;5094716;28;653;-85
2021/08/16 10:32:32;;;;;;;;;;;;;;;22.93;29.15;97988.09;5077491;28;1266;-85
2021/08/16 10:35:07;;;;;;;;;;;;;;;22.88;29.32;97984.56;5093775;28;936;-85
2021/08/16 10:37:38;;;;;;;;;;;;;;;22.91;29.09;97991.41;5076857;28;1192;-85
2021/08/16 10:40:14;;;;;;;;;;;;;;;22.85;29.24;97988.31;5077746;28;1973;-85
2021/08/16 10:42:39;;;;;;;;;;;;;;;22.66;29.89;97992.16;5076653;28;1146;-85
2021/08/16 10:45:07;;;;;;;;;;;;;;;22.87;29.40;97997.16;5077366;28;873;-85
2021/08/16 10:47:36;;;;;;;;;;;;;;;22.93;29.11;97996.59;5077838;28;790;-84
2021/08/16 10:50:06;;;;;;;;;;;;;;;23.04;29.12;97994.22;5077949;28;915;-85
2021/08/16 10:52:31;;;;;;;;;;;;;;;22.91;29.59;98001.94;5075684;28;1187;-85
2021/08/16 10:55:13;;;;;;;;;;;;;;;22.94;29.42;97986.84;5077211;28;1209;-85
2021/08/16 10:57:42;;;;;;;;;;;;;;;22.98;29.44;97990.38;5076566;28;1258;-84
2021/08/16 11:00:08;;;;;;;;;;;;;;;22.87;29.57;97985.00;5094234;28;1961;-85
2021/08/16 11:02:33;;;;;;;;;;;;;;;22.93;29.39;97982.41;5093786;28;725;-85
2021/08/16 11:04:59;;;;;;;;;;;;;;;23.00;29.09;97985.00;5076183;28;1140;-85
2021/08/16 11:07:25;;;;;;;;;;;;;;;22.98;29.40;97976.16;5076204;28;1177;-85
2021/08/16 11:09:57;;;;;;;;;;;;;;;22.86;29.35;97978.53;5075431;28;1266;-85
2021/08/16 11:12:33;;;;;;;;;;;;;;;22.90;29.53;97977.63;5076098;28;1231;-85
2021/08/16 11:14:59;;;;;;;;;;;;;;;23.05;29.23;97968.25;5076802;28;1309;-84
2021/08/16 11:17:25;;;;;;;;;;;;;;;23.12;29.19;97979.34;5076538;28;1230;-85
2021/08/16 11:19:51;;;;;;;;;;;;;;;23.04;29.21;97966.63;5056919;28;1963;-86
2021/08/16 11:22:16;;;;;;;;;;;;;;;23.03;29.39;97970.72;5074702;28;1125;-86
2021/08/16 11:24:42;;;;;;;;;;;;;;;23.01;29.19;97978.13;5077060;28;1009;-85
2021/08/16 11:27:08;;;;;;;;;;;;;;;22.97;29.49;97968.91;5110707;28;727;-84
2021/08/16 11:29:35;;;;;;;;;;;;;;;23.23;28.93;97973.31;5093354;28;777;-85
2021/08/16 11:32:04;;;;;;;;;;;;;;;23.16;28.96;97967.06;5059703;28;1142;-85
2021/08/16 11:34:56;;;;;;;;;;;;;;;23.06;29.38;97963.34;5076690;28;920;-85
2021/08/16 11:37:22;;;;;;;;;;;;;;;22.92;29.43;97958.94;5092140;28;1342;-86
2021/08/16 11:39:53;;;;;;;;;;;;;;;22.93;29.58;97962.56;5076581;28;1893;-86
2021/08/16 11:42:19;;;;;;;;;;;;;;;22.99;29.48;97964.34;5093545;28;1273;-85
2021/08/16 11:44:54;;;;;;;;;;;;;;;22.98;29.57;97953.47;5076131;28;1254;-85
2021/08/16 11:47:25;;;;;;;;;;;;;;;22.90;29.57;97954.94;5076572;28;1289;-85
2021/08/16 11:49:51;;;;;;;;;;;;;;;23.01;29.60;97955.41;5058894;28;1122;-85
2021/08/16 11:52:20;;;;;;;;;;;;;;;23.14;28.98;97947.66;5076354;28;1139;-85
2021/08/16 11:54:45;;;;;;;;;;;;;;;23.08;29.36;97955.16;5077136;28;1154;-85
2021/08/16 11:57:11;;;;;;;;;;;;;;;23.23;28.95;97944.91;5093599;28;829;-86
2021/08/16 11:59:36;;;;;;;;;;;;;;;23.15;29.03;97946.41;5093833;28;1941;-86
2021/08/16 12:02:05;;;;;;;;;;;;;;;22.99;29.30;97943.72;5093262;28;738;-85
2021/08/16 12:04:34;;;;;;;;;;;;;;;22.99;29.60;97944.50;5093355;28;944;-85
2021/08/16 12:07:01;;;;;;;;;;;;;;;22.99;29.55;97940.88;5089722;28;904;-85
2021/08/16 12:09:33;;;;;;;;;;;;;;;22.99;29.54;97930.31;5077097;28;1161;-86
2021/08/16 12:11:59;;;;;;;;;;;;;;;23.05;29.31;97927.69;5076135;28;1424;-85
2021/08/16 12:14:32;;;;;;;;;;;;;;;23.01;29.47;97929.88;5076725;28;986;-86
2021/08/16 12:16:57;;;;;;;;;;;;;;;22.93;29.72;97931.34;5075316;28;1191;-86
2021/08/16 12:19:23;;;;;;;;;;;;;;;23.22;29.24;97919.84;5075672;28;1906;-86
2021/08/16 12:21:59;;;;;;;;;;;;;;;23.12;29.27;97922.56;5092154;28;1216;-86
2021/08/16 12:24:25;;;;;;;;;;;;;;;23.09;29.35;97911.34;5074877;28;1196;-85
2021/08/16 12:26:57;;;;;;;;;;;;;;;23.12;29.04;97910.44;5075633;28;1240;-85
2021/08/16 12:29:23;;;;;;;;;;;;;;;23.08;29.09;97909.75;5076077;28;1158;-86
2021/08/16 12:31:48;;;;;;;;;;;;;;;23.10;29.03;97908.06;5075759;28;1173;-85
2021/08/16 12:34:14;;;;;;;;;;;;;;;23.14;29.25;97919.28;5059017;28;1296;-86
2021/08/16 12:36:40;;;;;;;;;;;;;;;23.08;29.10;97915.44;5075682;28;906;-86
2021/08/16 12:39:09;;;;;;;;;;;;;;;23.12;29.30;97913.28;5058485;28;1957;-85
2021/08/16 12:41:34;;;;;;;;;;;;;;;23.20;29.01;97908.13;5091745;28;1089;-85
2021/08/16 12:44:00;;;;;;;;;;;;;;;23.00;29.48;97919.75;5090546;28;817;-86
2021/08/16 12:46:35;;;;;;;;;;;;;;;23.04;29.40;97914.75;5091891;28;812;-85
2021/08/16 12:49:01;;;;;;;;;;;;;;;23.06;29.20;97900.91;5059650;28;1182;-86
2021/08/16 12:51:27;;;;;;;;;;;;;;;23.07;29.20;97908.19;5074838;28;1158;-85
2021/08/16 12:53:55;;;;;;;;;;;;;;;23.24;29.03;97901.06;5058713;28;1134;-85
2021/08/16 12:56:20;;;;;;;;;;;;;;;23.18;28.88;97902.13;5075198;28;806;-85